sensor_id;sensor_type;location;lat;lon;timestamp;P1;durP1;ratioP1;P2;durP2;ratioP2
13832;SDS011;6987;19.472;-99.276;2023-02-28T00:00:21;6.75;;;4.78;;
13832;SDS011;6987;19.472;-99.276;2023-02-28T00:02:54;5.63;;;4.45;;
13832;SDS011;6987;19.472;-99.276;2023-02-28T00:05:24;5.72;;;4.88;;
13832;SDS011;6987;19.472;-99.276;2023-02-28T00:07:53;6.57;;;4.78;;
13832;SDS011;6987;19.472;-99.276;2023-02-28T00:10:23;6.07;;;5.00;;
13832;SDS011;6987;19.472;-99.276;2023-02-28T00:12:53;6.50;;;4.72;;
13832;SDS011;6987;19.472;-99.276;2023-02-28T00:15:24;4.63;;;4.32;;
13832;SDS011;6987;19.472;-99.276;2023-02-28T00:17:53;7.05;;;4.05;;
13832;SDS011;6987;19.472;-99.276;2023-02-28T00:20:22;4.22;;;3.90;;
13832;SDS011;6987;19.472;-99.276;2023-02-28T00:22:52;4.05;;;3.75;;
13832;SDS011;6987;19.472;-99.276;2023-02-28T00:25:22;8.82;;;5.13;;
13832;SDS011;6987;19.472;-99.276;2023-02-28T00:27:52;7.70;;;5.35;;
13832;SDS011;6987;19.472;-99.276;2023-02-28T00:30:22;5.78;;;5.38;;
13832;SDS011;6987;19.472;-99.276;2023-02-28T00:32:53;5.00;;;4.47;;
13832;SDS011;6987;19.472;-99.276;2023-02-28T00:35:22;5.80;;;4.65;;
13832;SDS011;6987;19.472;-99.276;2023-02-28T00:37:51;5.25;;;4.32;;
13832;SDS011;6987;19.472;-99.276;2023-02-28T00:40:20;8.73;;;3.45;;
13832;SDS011;6987;19.472;-99.276;2023-02-28T00:42:49;5.57;;;3.75;;
13832;SDS011;6987;19.472;-99.276;2023-02-28T00:45:18;3.38;;;3.08;;
13832;SDS011;6987;19.472;-99.276;2023-02-28T00:47:48;4.43;;;3.20;;
13832;SDS011;6987;19.472;-99.276;2023-02-28T00:50:19;2.83;;;2.65;;
13832;SDS011;6987;19.472;-99.276;2023-02-28T00:52:48;4.93;;;3.38;;
13832;SDS011;6987;19.472;-99.276;2023-02-28T00:55:17;3.97;;;3.13;;
13832;SDS011;6987;19.472;-99.276;2023-02-28T00:57:46;3.22;;;2.95;;
13832;SDS011;6987;19.472;-99.276;2023-02-28T01:00:16;3.05;;;2.83;;
13832;SDS011;6987;19.472;-99.276;2023-02-28T01:02:46;7.95;;;4.32;;
13832;SDS011;6987;19.472;-99.276;2023-02-28T01:05:15;9.60;;;5.22;;
13832;SDS011;6987;19.472;-99.276;2023-02-28T01:07:46;9.45;;;4.60;;
13832;SDS011;6987;19.472;-99.276;2023-02-28T01:10:15;5.78;;;5.10;;
13832;SDS011;6987;19.472;-99.276;2023-02-28T01:12:44;10.55;;;7.10;;
13832;SDS011;6987;19.472;-99.276;2023-02-28T01:15:14;15.05;;;9.05;;
13832;SDS011;6987;19.472;-99.276;2023-02-28T01:17:43;22.67;;;8.27;;
13832;SDS011;6987;19.472;-99.276;2023-02-28T01:20:12;12.57;;;9.15;;
13832;SDS011;6987;19.472;-99.276;2023-02-28T01:22:42;23.90;;;13.05;;
13832;SDS011;6987;19.472;-99.276;2023-02-28T01:25:13;24.83;;;15.00;;
13832;SDS011;6987;19.472;-99.276;2023-02-28T01:27:42;26.10;;;15.10;;
13832;SDS011;6987;19.472;-99.276;2023-02-28T01:30:11;20.33;;;13.60;;
13832;SDS011;6987;19.472;-99.276;2023-02-28T01:32:41;31.45;;;17.48;;
13832;SDS011;6987;19.472;-99.276;2023-02-28T01:35:12;27.55;;;16.83;;
13832;SDS011;6987;19.472;-99.276;2023-02-28T01:37:41;24.42;;;16.20;;
13832;SDS011;6987;19.472;-99.276;2023-02-28T01:40:13;28.88;;;16.75;;
13832;SDS011;6987;19.472;-99.276;2023-02-28T01:42:42;30.77;;;17.20;;
13832;SDS011;6987;19.472;-99.276;2023-02-28T01:45:22;22.20;;;15.30;;
13832;SDS011;6987;19.472;-99.276;2023-02-28T01:47:51;37.70;;;12.10;;
13832;SDS011;6987;19.472;-99.276;2023-02-28T01:50:22;19.40;;;10.80;;
13832;SDS011;6987;19.472;-99.276;2023-02-28T01:52:52;19.50;;;10.63;;
13832;SDS011;6987;19.472;-99.276;2023-02-28T01:55:25;28.83;;;11.98;;
13832;SDS011;6987;19.472;-99.276;2023-02-28T01:57:57;17.15;;;12.60;;
13832;SDS011;6987;19.472;-99.276;2023-02-28T02:00:27;21.65;;;13.55;;
13832;SDS011;6987;19.472;-99.276;2023-02-28T02:02:57;21.73;;;14.60;;
13832;SDS011;6987;19.472;-99.276;2023-02-28T02:05:28;25.33;;;15.57;;
13832;SDS011;6987;19.472;-99.276;2023-02-28T02:08:01;23.90;;;15.80;;
13832;SDS011;6987;19.472;-99.276;2023-02-28T02:10:33;22.67;;;15.27;;
13832;SDS011;6987;19.472;-99.276;2023-02-28T02:16:08;16.52;;;12.90;;
13832;SDS011;6987;19.472;-99.276;2023-02-28T02:18:40;17.75;;;10.48;;
13832;SDS011;6987;19.472;-99.276;2023-02-28T02:21:17;25.27;;;12.07;;
13832;SDS011;6987;19.472;-99.276;2023-02-28T02:26:43;30.77;;;9.77;;
13832;SDS011;6987;19.472;-99.276;2023-02-28T02:32:18;24.63;;;10.80;;
13832;SDS011;6987;19.472;-99.276;2023-02-28T02:34:58;28.83;;;10.35;;
13832;SDS011;6987;19.472;-99.276;2023-02-28T02:37:30;8.40;;;5.90;;
13832;SDS011;6987;19.472;-99.276;2023-02-28T02:40:03;9.25;;;3.78;;
13832;SDS011;6987;19.472;-99.276;2023-02-28T02:42:35;8.82;;;4.53;;
13832;SDS011;6987;19.472;-99.276;2023-02-28T02:45:06;11.93;;;4.70;;
13832;SDS011;6987;19.472;-99.276;2023-02-28T02:47:36;10.45;;;4.35;;
13832;SDS011;6987;19.472;-99.276;2023-02-28T02:50:08;34.80;;;6.22;;
13832;SDS011;6987;19.472;-99.276;2023-02-28T02:52:40;7.55;;;4.43;;
13832;SDS011;6987;19.472;-99.276;2023-02-28T02:55:11;8.00;;;3.20;;
13832;SDS011;6987;19.472;-99.276;2023-02-28T02:57:43;3.95;;;2.80;;
13832;SDS011;6987;19.472;-99.276;2023-02-28T03:00:14;4.90;;;2.88;;
13832;SDS011;6987;19.472;-99.276;2023-02-28T03:02:45;5.97;;;3.15;;
13832;SDS011;6987;19.472;-99.276;2023-02-28T03:05:17;3.65;;;2.55;;
13832;SDS011;6987;19.472;-99.276;2023-02-28T03:07:47;3.83;;;2.33;;
13832;SDS011;6987;19.472;-99.276;2023-02-28T03:10:30;5.35;;;2.42;;
13832;SDS011;6987;19.472;-99.276;2023-02-28T03:13:03;5.93;;;2.25;;
13832;SDS011;6987;19.472;-99.276;2023-02-28T03:15:34;4.15;;;2.15;;
13832;SDS011;6987;19.472;-99.276;2023-02-28T03:18:05;5.80;;;2.83;;
13832;SDS011;6987;19.472;-99.276;2023-02-28T03:20:40;7.20;;;3.30;;
13832;SDS011;6987;19.472;-99.276;2023-02-28T03:23:14;10.48;;;4.07;;
13832;SDS011;6987;19.472;-99.276;2023-02-28T03:25:50;11.80;;;4.35;;
13832;SDS011;6987;19.472;-99.276;2023-02-28T03:28:23;19.63;;;7.88;;
13832;SDS011;6987;19.472;-99.276;2023-02-28T03:30:54;18.08;;;8.88;;
13832;SDS011;6987;19.472;-99.276;2023-02-28T03:33:27;8.93;;;6.38;;
13832;SDS011;6987;19.472;-99.276;2023-02-28T03:35:59;14.05;;;5.95;;
13832;SDS011;6987;19.472;-99.276;2023-02-28T03:38:29;14.90;;;6.55;;
13832;SDS011;6987;19.472;-99.276;2023-02-28T03:41:01;11.32;;;6.50;;
13832;SDS011;6987;19.472;-99.276;2023-02-28T03:43:32;6.70;;;4.78;;
13832;SDS011;6987;19.472;-99.276;2023-02-28T03:46:05;8.07;;;5.35;;
13832;SDS011;6987;19.472;-99.276;2023-02-28T03:48:37;5.72;;;5.07;;
13832;SDS011;6987;19.472;-99.276;2023-02-28T03:51:09;7.93;;;5.20;;
13832;SDS011;6987;19.472;-99.276;2023-02-28T03:53:39;12.75;;;5.03;;
13832;SDS011;6987;19.472;-99.276;2023-02-28T03:56:12;6.70;;;4.95;;
13832;SDS011;6987;19.472;-99.276;2023-02-28T03:58:43;11.68;;;7.60;;
13832;SDS011;6987;19.472;-99.276;2023-02-28T04:01:18;13.07;;;5.13;;
13832;SDS011;6987;19.472;-99.276;2023-02-28T04:03:49;9.65;;;6.15;;
13832;SDS011;6987;19.472;-99.276;2023-02-28T04:06:20;17.35;;;7.50;;
13832;SDS011;6987;19.472;-99.276;2023-02-28T04:08:50;10.07;;;6.65;;
13832;SDS011;6987;19.472;-99.276;2023-02-28T04:11:20;18.48;;;7.40;;
13832;SDS011;6987;19.472;-99.276;2023-02-28T04:13:49;11.00;;;7.05;;
13832;SDS011;6987;19.472;-99.276;2023-02-28T04:16:18;13.70;;;7.30;;
13832;SDS011;6987;19.472;-99.276;2023-02-28T04:18:47;15.13;;;9.65;;
13832;SDS011;6987;19.472;-99.276;2023-02-28T04:21:17;21.00;;;9.77;;
13832;SDS011;6987;19.472;-99.276;2023-02-28T04:23:50;20.45;;;11.00;;
13832;SDS011;6987;19.472;-99.276;2023-02-28T04:26:19;18.42;;;11.18;;
13832;SDS011;6987;19.472;-99.276;2023-02-28T04:28:47;16.45;;;10.13;;
13832;SDS011;6987;19.472;-99.276;2023-02-28T04:31:16;15.82;;;9.68;;
13832;SDS011;6987;19.472;-99.276;2023-02-28T04:33:45;15.15;;;10.05;;
13832;SDS011;6987;19.472;-99.276;2023-02-28T04:36:14;18.42;;;11.27;;
13832;SDS011;6987;19.472;-99.276;2023-02-28T04:38:44;22.55;;;11.32;;
13832;SDS011;6987;19.472;-99.276;2023-02-28T04:41:15;15.65;;;10.05;;
13832;SDS011;6987;19.472;-99.276;2023-02-28T04:43:44;15.35;;;10.70;;
13832;SDS011;6987;19.472;-99.276;2023-02-28T04:46:13;18.90;;;11.38;;
13832;SDS011;6987;19.472;-99.276;2023-02-28T04:48:43;14.70;;;11.55;;
13832;SDS011;6987;19.472;-99.276;2023-02-28T04:51:13;17.75;;;10.18;;
13832;SDS011;6987;19.472;-99.276;2023-02-28T04:53:42;17.95;;;10.95;;
13832;SDS011;6987;19.472;-99.276;2023-02-28T04:56:12;18.52;;;12.45;;
13832;SDS011;6987;19.472;-99.276;2023-02-28T04:58:43;19.88;;;14.07;;
13832;SDS011;6987;19.472;-99.276;2023-02-28T05:01:19;28.60;;;16.42;;
13832;SDS011;6987;19.472;-99.276;2023-02-28T05:03:48;29.52;;;15.80;;
13832;SDS011;6987;19.472;-99.276;2023-02-28T05:06:17;27.90;;;16.60;;
13832;SDS011;6987;19.472;-99.276;2023-02-28T05:08:47;30.05;;;17.80;;
13832;SDS011;6987;19.472;-99.276;2023-02-28T05:11:17;25.48;;;16.65;;
13832;SDS011;6987;19.472;-99.276;2023-02-28T05:13:48;24.13;;;14.60;;
13832;SDS011;6987;19.472;-99.276;2023-02-28T05:16:18;17.73;;;12.93;;
13832;SDS011;6987;19.472;-99.276;2023-02-28T05:18:47;24.13;;;16.27;;
13832;SDS011;6987;19.472;-99.276;2023-02-28T05:21:26;28.65;;;16.35;;
13832;SDS011;6987;19.472;-99.276;2023-02-28T05:23:56;30.17;;;18.98;;
13832;SDS011;6987;19.472;-99.276;2023-02-28T05:26:25;33.10;;;17.55;;
13832;SDS011;6987;19.472;-99.276;2023-02-28T05:28:56;33.88;;;18.75;;
13832;SDS011;6987;19.472;-99.276;2023-02-28T05:31:26;28.90;;;18.35;;
13832;SDS011;6987;19.472;-99.276;2023-02-28T05:33:55;29.73;;;17.83;;
13832;SDS011;6987;19.472;-99.276;2023-02-28T05:36:25;30.55;;;19.15;;
13832;SDS011;6987;19.472;-99.276;2023-02-28T05:38:53;32.20;;;19.17;;
13832;SDS011;6987;19.472;-99.276;2023-02-28T05:41:23;28.30;;;18.55;;
13832;SDS011;6987;19.472;-99.276;2023-02-28T05:43:52;25.25;;;18.25;;
13832;SDS011;6987;19.472;-99.276;2023-02-28T05:46:23;35.35;;;19.02;;
13832;SDS011;6987;19.472;-99.276;2023-02-28T05:48:52;27.80;;;17.88;;
13832;SDS011;6987;19.472;-99.276;2023-02-28T05:51:21;29.42;;;17.48;;
13832;SDS011;6987;19.472;-99.276;2023-02-28T05:53:50;23.10;;;17.58;;
13832;SDS011;6987;19.472;-99.276;2023-02-28T05:56:19;25.30;;;16.63;;
13832;SDS011;6987;19.472;-99.276;2023-02-28T05:58:48;24.90;;;15.68;;
13832;SDS011;6987;19.472;-99.276;2023-02-28T06:01:22;23.30;;;16.00;;
13832;SDS011;6987;19.472;-99.276;2023-02-28T06:03:51;30.90;;;17.17;;
13832;SDS011;6987;19.472;-99.276;2023-02-28T06:06:20;25.10;;;17.17;;
13832;SDS011;6987;19.472;-99.276;2023-02-28T06:08:50;29.05;;;16.58;;
13832;SDS011;6987;19.472;-99.276;2023-02-28T06:11:19;26.10;;;16.90;;
13832;SDS011;6987;19.472;-99.276;2023-02-28T06:13:53;37.17;;;18.05;;
13832;SDS011;6987;19.472;-99.276;2023-02-28T06:16:25;32.80;;;17.67;;
13832;SDS011;6987;19.472;-99.276;2023-02-28T06:18:56;32.25;;;18.25;;
13832;SDS011;6987;19.472;-99.276;2023-02-28T06:21:25;40.47;;;17.58;;
13832;SDS011;6987;19.472;-99.276;2023-02-28T06:23:55;33.15;;;18.33;;
13832;SDS011;6987;19.472;-99.276;2023-02-28T06:26:24;30.73;;;17.40;;
13832;SDS011;6987;19.472;-99.276;2023-02-28T06:28:53;23.77;;;17.20;;
13832;SDS011;6987;19.472;-99.276;2023-02-28T06:31:22;39.05;;;18.15;;
13832;SDS011;6987;19.472;-99.276;2023-02-28T06:33:53;28.33;;;17.88;;
13832;SDS011;6987;19.472;-99.276;2023-02-28T06:36:22;28.20;;;18.25;;
13832;SDS011;6987;19.472;-99.276;2023-02-28T06:38:51;29.05;;;16.80;;
13832;SDS011;6987;19.472;-99.276;2023-02-28T06:41:21;27.67;;;18.10;;
13832;SDS011;6987;19.472;-99.276;2023-02-28T06:43:50;28.35;;;16.15;;
13832;SDS011;6987;19.472;-99.276;2023-02-28T06:46:19;28.95;;;17.52;;
13832;SDS011;6987;19.472;-99.276;2023-02-28T06:48:49;27.85;;;17.27;;
13832;SDS011;6987;19.472;-99.276;2023-02-28T06:51:19;28.70;;;16.23;;
13832;SDS011;6987;19.472;-99.276;2023-02-28T06:53:50;27.33;;;17.00;;
13832;SDS011;6987;19.472;-99.276;2023-02-28T06:56:19;24.20;;;17.02;;
13832;SDS011;6987;19.472;-99.276;2023-02-28T06:58:48;29.85;;;16.27;;
13832;SDS011;6987;19.472;-99.276;2023-02-28T07:01:18;31.52;;;17.88;;
13832;SDS011;6987;19.472;-99.276;2023-02-28T07:03:48;29.98;;;17.65;;
13832;SDS011;6987;19.472;-99.276;2023-02-28T07:06:19;27.70;;;17.25;;
13832;SDS011;6987;19.472;-99.276;2023-02-28T07:08:50;23.13;;;15.65;;
13832;SDS011;6987;19.472;-99.276;2023-02-28T07:11:19;29.25;;;16.95;;
13832;SDS011;6987;19.472;-99.276;2023-02-28T07:13:51;25.33;;;16.45;;
13832;SDS011;6987;19.472;-99.276;2023-02-28T07:16:20;27.92;;;17.80;;
13832;SDS011;6987;19.472;-99.276;2023-02-28T07:18:51;23.05;;;16.42;;
13832;SDS011;6987;19.472;-99.276;2023-02-28T07:21:22;27.58;;;17.15;;
13832;SDS011;6987;19.472;-99.276;2023-02-28T07:23:51;27.55;;;17.30;;
13832;SDS011;6987;19.472;-99.276;2023-02-28T07:26:21;26.27;;;16.42;;
13832;SDS011;6987;19.472;-99.276;2023-02-28T07:28:50;22.85;;;16.48;;
13832;SDS011;6987;19.472;-99.276;2023-02-28T07:31:19;28.58;;;18.52;;
13832;SDS011;6987;19.472;-99.276;2023-02-28T07:33:48;27.10;;;16.75;;
13832;SDS011;6987;19.472;-99.276;2023-02-28T07:36:17;28.02;;;18.75;;
13832;SDS011;6987;19.472;-99.276;2023-02-28T07:38:49;30.67;;;17.77;;
13832;SDS011;6987;19.472;-99.276;2023-02-28T07:41:19;27.25;;;18.50;;
13832;SDS011;6987;19.472;-99.276;2023-02-28T07:43:49;28.08;;;19.50;;
13832;SDS011;6987;19.472;-99.276;2023-02-28T07:46:18;25.52;;;19.67;;
13832;SDS011;6987;19.472;-99.276;2023-02-28T07:48:47;29.88;;;20.05;;
13832;SDS011;6987;19.472;-99.276;2023-02-28T07:51:17;34.25;;;21.85;;
13832;SDS011;6987;19.472;-99.276;2023-02-28T07:53:48;37.60;;;20.70;;
13832;SDS011;6987;19.472;-99.276;2023-02-28T07:56:17;29.67;;;21.63;;
13832;SDS011;6987;19.472;-99.276;2023-02-28T07:58:46;35.30;;;21.83;;
13832;SDS011;6987;19.472;-99.276;2023-02-28T08:01:15;32.88;;;20.80;;
13832;SDS011;6987;19.472;-99.276;2023-02-28T08:03:45;31.98;;;20.40;;
13832;SDS011;6987;19.472;-99.276;2023-02-28T08:06:17;29.85;;;22.83;;
13832;SDS011;6987;19.472;-99.276;2023-02-28T08:08:49;36.78;;;21.83;;
13832;SDS011;6987;19.472;-99.276;2023-02-28T08:11:18;30.45;;;21.52;;
13832;SDS011;6987;19.472;-99.276;2023-02-28T08:13:47;36.45;;;21.98;;
13832;SDS011;6987;19.472;-99.276;2023-02-28T08:16:16;35.53;;;23.77;;
13832;SDS011;6987;19.472;-99.276;2023-02-28T08:18:48;44.45;;;25.40;;
13832;SDS011;6987;19.472;-99.276;2023-02-28T08:21:17;34.55;;;23.75;;
13832;SDS011;6987;19.472;-99.276;2023-02-28T08:23:49;30.38;;;22.75;;
13832;SDS011;6987;19.472;-99.276;2023-02-28T08:26:18;32.28;;;23.10;;
13832;SDS011;6987;19.472;-99.276;2023-02-28T08:28:48;31.23;;;22.40;;
13832;SDS011;6987;19.472;-99.276;2023-02-28T08:31:17;36.38;;;21.05;;
13832;SDS011;6987;19.472;-99.276;2023-02-28T08:33:46;29.05;;;21.05;;
13832;SDS011;6987;19.472;-99.276;2023-02-28T08:36:18;30.80;;;19.08;;
13832;SDS011;6987;19.472;-99.276;2023-02-28T08:38:49;31.63;;;20.65;;
13832;SDS011;6987;19.472;-99.276;2023-02-28T08:41:18;30.20;;;21.38;;
13832;SDS011;6987;19.472;-99.276;2023-02-28T08:43:47;31.50;;;22.58;;
13832;SDS011;6987;19.472;-99.276;2023-02-28T08:46:17;35.85;;;24.10;;
13832;SDS011;6987;19.472;-99.276;2023-02-28T08:48:46;32.95;;;24.27;;
13832;SDS011;6987;19.472;-99.276;2023-02-28T08:51:17;36.33;;;23.48;;
13832;SDS011;6987;19.472;-99.276;2023-02-28T08:53:53;40.60;;;25.13;;
13832;SDS011;6987;19.472;-99.276;2023-02-28T08:56:22;37.88;;;25.20;;
13832;SDS011;6987;19.472;-99.276;2023-02-28T08:58:51;36.13;;;24.10;;
13832;SDS011;6987;19.472;-99.276;2023-02-28T09:01:22;31.45;;;23.50;;
13832;SDS011;6987;19.472;-99.276;2023-02-28T09:03:52;37.42;;;23.45;;
13832;SDS011;6987;19.472;-99.276;2023-02-28T09:06:22;38.33;;;23.65;;
13832;SDS011;6987;19.472;-99.276;2023-02-28T09:08:53;34.58;;;20.88;;
13832;SDS011;6987;19.472;-99.276;2023-02-28T09:11:27;31.42;;;22.17;;
13832;SDS011;6987;19.472;-99.276;2023-02-28T09:13:56;30.10;;;22.35;;
13832;SDS011;6987;19.472;-99.276;2023-02-28T09:16:26;32.63;;;21.35;;
13832;SDS011;6987;19.472;-99.276;2023-02-28T09:18:55;37.22;;;22.92;;
13832;SDS011;6987;19.472;-99.276;2023-02-28T09:21:24;32.38;;;22.13;;
13832;SDS011;6987;19.472;-99.276;2023-02-28T09:23:55;30.85;;;20.85;;
13832;SDS011;6987;19.472;-99.276;2023-02-28T09:26:24;30.60;;;21.70;;
13832;SDS011;6987;19.472;-99.276;2023-02-28T09:28:53;31.50;;;21.73;;
13832;SDS011;6987;19.472;-99.276;2023-02-28T09:31:24;29.55;;;20.58;;
13832;SDS011;6987;19.472;-99.276;2023-02-28T09:33:54;26.13;;;19.20;;
13832;SDS011;6987;19.472;-99.276;2023-02-28T09:36:25;28.75;;;19.95;;
13832;SDS011;6987;19.472;-99.276;2023-02-28T09:38:57;31.48;;;20.08;;
13832;SDS011;6987;19.472;-99.276;2023-02-28T09:41:26;29.85;;;19.42;;
13832;SDS011;6987;19.472;-99.276;2023-02-28T09:43:58;30.75;;;19.38;;
13832;SDS011;6987;19.472;-99.276;2023-02-28T09:46:29;32.00;;;20.85;;
13832;SDS011;6987;19.472;-99.276;2023-02-28T09:49:00;29.83;;;19.10;;
13832;SDS011;6987;19.472;-99.276;2023-02-28T09:51:33;37.78;;;20.05;;
13832;SDS011;6987;19.472;-99.276;2023-02-28T09:54:05;30.70;;;19.67;;
13832;SDS011;6987;19.472;-99.276;2023-02-28T09:56:36;27.52;;;18.65;;
13832;SDS011;6987;19.472;-99.276;2023-02-28T09:59:10;31.63;;;17.63;;
13832;SDS011;6987;19.472;-99.276;2023-02-28T10:01:44;28.58;;;18.67;;
13832;SDS011;6987;19.472;-99.276;2023-02-28T10:04:16;30.35;;;18.23;;
13832;SDS011;6987;19.472;-99.276;2023-02-28T10:06:49;29.30;;;19.83;;
13832;SDS011;6987;19.472;-99.276;2023-02-28T10:09:20;33.72;;;20.67;;
13832;SDS011;6987;19.472;-99.276;2023-02-28T10:11:52;29.23;;;18.83;;
13832;SDS011;6987;19.472;-99.276;2023-02-28T10:14:21;33.08;;;18.75;;
13832;SDS011;6987;19.472;-99.276;2023-02-28T10:16:51;29.88;;;18.23;;
13832;SDS011;6987;19.472;-99.276;2023-02-28T10:19:22;29.63;;;19.08;;
13832;SDS011;6987;19.472;-99.276;2023-02-28T10:21:55;27.25;;;18.80;;
13832;SDS011;6987;19.472;-99.276;2023-02-28T10:24:28;28.77;;;17.90;;
13832;SDS011;6987;19.472;-99.276;2023-02-28T10:26:59;29.23;;;18.15;;
13832;SDS011;6987;19.472;-99.276;2023-02-28T10:29:29;30.08;;;19.85;;
13832;SDS011;6987;19.472;-99.276;2023-02-28T10:32:00;35.42;;;19.58;;
13832;SDS011;6987;19.472;-99.276;2023-02-28T10:34:30;31.80;;;18.85;;
13832;SDS011;6987;19.472;-99.276;2023-02-28T10:36:59;31.90;;;19.80;;
13832;SDS011;6987;19.472;-99.276;2023-02-28T10:39:39;32.22;;;20.15;;
13832;SDS011;6987;19.472;-99.276;2023-02-28T10:42:19;32.53;;;19.48;;
13832;SDS011;6987;19.472;-99.276;2023-02-28T10:44:48;32.05;;;20.02;;
13832;SDS011;6987;19.472;-99.276;2023-02-28T10:47:17;35.58;;;20.20;;
13832;SDS011;6987;19.472;-99.276;2023-02-28T10:49:47;29.63;;;19.23;;
13832;SDS011;6987;19.472;-99.276;2023-02-28T10:52:33;32.92;;;19.25;;
13832;SDS011;6987;19.472;-99.276;2023-02-28T10:55:20;26.40;;;17.80;;
13832;SDS011;6987;19.472;-99.276;2023-02-28T10:57:49;30.40;;;16.20;;
13832;SDS011;6987;19.472;-99.276;2023-02-28T11:00:19;26.13;;;17.80;;
13832;SDS011;6987;19.472;-99.276;2023-02-28T11:02:48;39.25;;;19.27;;
13832;SDS011;6987;19.472;-99.276;2023-02-28T11:05:27;27.98;;;18.52;;
13832;SDS011;6987;19.472;-99.276;2023-02-28T11:07:59;29.05;;;18.23;;
13832;SDS011;6987;19.472;-99.276;2023-02-28T11:10:33;31.23;;;19.13;;
13832;SDS011;6987;19.472;-99.276;2023-02-28T11:13:02;29.35;;;17.63;;
13832;SDS011;6987;19.472;-99.276;2023-02-28T11:15:32;28.00;;;17.20;;
13832;SDS011;6987;19.472;-99.276;2023-02-28T11:18:18;29.13;;;18.50;;
13832;SDS011;6987;19.472;-99.276;2023-02-28T11:20:48;30.65;;;18.08;;
13832;SDS011;6987;19.472;-99.276;2023-02-28T11:23:18;25.92;;;17.08;;
13832;SDS011;6987;19.472;-99.276;2023-02-28T11:25:50;23.95;;;15.82;;
13832;SDS011;6987;19.472;-99.276;2023-02-28T11:28:25;18.83;;;12.68;;
13832;SDS011;6987;19.472;-99.276;2023-02-28T11:31:04;20.77;;;13.52;;
13832;SDS011;6987;19.472;-99.276;2023-02-28T11:33:40;20.60;;;13.70;;
13832;SDS011;6987;19.472;-99.276;2023-02-28T11:36:11;21.55;;;12.93;;
13832;SDS011;6987;19.472;-99.276;2023-02-28T11:38:41;18.13;;;12.77;;
13832;SDS011;6987;19.472;-99.276;2023-02-28T11:46:57;23.42;;;13.05;;
13832;SDS011;6987;19.472;-99.276;2023-02-28T11:49:30;17.80;;;11.85;;
13832;SDS011;6987;19.472;-99.276;2023-02-28T11:52:02;20.20;;;13.10;;
13832;SDS011;6987;19.472;-99.276;2023-02-28T11:57:28;17.85;;;11.38;;
13832;SDS011;6987;19.472;-99.276;2023-02-28T12:00:03;19.27;;;12.52;;
13832;SDS011;6987;19.472;-99.276;2023-02-28T12:02:38;19.40;;;12.23;;
13832;SDS011;6987;19.472;-99.276;2023-02-28T12:05:20;19.20;;;12.57;;
13832;SDS011;6987;19.472;-99.276;2023-02-28T12:07:53;20.00;;;13.32;;
13832;SDS011;6987;19.472;-99.276;2023-02-28T12:10:25;20.60;;;12.90;;
13832;SDS011;6987;19.472;-99.276;2023-02-28T12:12:58;18.30;;;13.23;;
13832;SDS011;6987;19.472;-99.276;2023-02-28T12:18:21;21.95;;;13.02;;
13832;SDS011;6987;19.472;-99.276;2023-02-28T12:20:54;23.67;;;12.50;;
13832;SDS011;6987;19.472;-99.276;2023-02-28T12:23:30;16.92;;;12.77;;
13832;SDS011;6987;19.472;-99.276;2023-02-28T12:26:05;26.30;;;13.43;;
13832;SDS011;6987;19.472;-99.276;2023-02-28T12:28:38;24.35;;;12.85;;
13832;SDS011;6987;19.472;-99.276;2023-02-28T12:31:09;18.98;;;11.88;;
13832;SDS011;6987;19.472;-99.276;2023-02-28T12:33:42;17.10;;;11.05;;
13832;SDS011;6987;19.472;-99.276;2023-02-28T12:36:13;19.05;;;11.07;;
13832;SDS011;6987;19.472;-99.276;2023-02-28T12:38:45;15.77;;;10.90;;
13832;SDS011;6987;19.472;-99.276;2023-02-28T12:41:16;14.20;;;9.70;;
13832;SDS011;6987;19.472;-99.276;2023-02-28T12:43:48;23.48;;;9.15;;
13832;SDS011;6987;19.472;-99.276;2023-02-28T12:46:20;17.00;;;9.93;;
13832;SDS011;6987;19.472;-99.276;2023-02-28T12:48:52;22.85;;;9.82;;
13832;SDS011;6987;19.472;-99.276;2023-02-28T12:51:22;16.73;;;9.52;;
13832;SDS011;6987;19.472;-99.276;2023-02-28T12:53:54;21.73;;;9.57;;
13832;SDS011;6987;19.472;-99.276;2023-02-28T12:56:29;29.55;;;9.90;;
13832;SDS011;6987;19.472;-99.276;2023-02-28T12:59:00;15.55;;;9.23;;
13832;SDS011;6987;19.472;-99.276;2023-02-28T13:01:37;20.90;;;8.98;;
13832;SDS011;6987;19.472;-99.276;2023-02-28T13:09:58;20.77;;;8.85;;
13832;SDS011;6987;19.472;-99.276;2023-02-28T13:12:29;21.67;;;9.30;;
13832;SDS011;6987;19.472;-99.276;2023-02-28T13:15:04;17.25;;;8.77;;
13832;SDS011;6987;19.472;-99.276;2023-02-28T13:17:37;20.50;;;8.20;;
13832;SDS011;6987;19.472;-99.276;2023-02-28T13:20:14;18.75;;;8.50;;
13832;SDS011;6987;19.472;-99.276;2023-02-28T13:22:45;17.90;;;8.10;;
13832;SDS011;6987;19.472;-99.276;2023-02-28T13:27:59;19.48;;;9.57;;
13832;SDS011;6987;19.472;-99.276;2023-02-28T13:33:23;22.02;;;9.50;;
13832;SDS011;6987;19.472;-99.276;2023-02-28T13:36:01;18.92;;;9.35;;
13832;SDS011;6987;19.472;-99.276;2023-02-28T13:38:36;23.92;;;9.18;;
13832;SDS011;6987;19.472;-99.276;2023-02-28T13:44:02;19.15;;;8.90;;
13832;SDS011;6987;19.472;-99.276;2023-02-28T13:46:32;19.90;;;9.95;;
13832;SDS011;6987;19.472;-99.276;2023-02-28T13:51:45;15.60;;;8.65;;
13832;SDS011;6987;19.472;-99.276;2023-02-28T13:54:17;24.75;;;10.18;;
13832;SDS011;6987;19.472;-99.276;2023-02-28T13:56:49;15.68;;;8.85;;
13832;SDS011;6987;19.472;-99.276;2023-02-28T13:59:25;12.32;;;8.05;;
13832;SDS011;6987;19.472;-99.276;2023-02-28T14:02:02;17.98;;;8.27;;
13832;SDS011;6987;19.472;-99.276;2023-02-28T14:07:19;21.02;;;9.85;;
13832;SDS011;6987;19.472;-99.276;2023-02-28T14:09:50;22.95;;;11.13;;
13832;SDS011;6987;19.472;-99.276;2023-02-28T14:17:53;25.75;;;13.90;;
13832;SDS011;6987;19.472;-99.276;2023-02-28T14:20:24;25.40;;;14.48;;
13832;SDS011;6987;19.472;-99.276;2023-02-28T14:22:56;20.75;;;14.55;;
13832;SDS011;6987;19.472;-99.276;2023-02-28T14:25:30;25.83;;;12.00;;
13832;SDS011;6987;19.472;-99.276;2023-02-28T14:28:04;36.78;;;11.32;;
13832;SDS011;6987;19.472;-99.276;2023-02-28T14:33:27;21.13;;;9.73;;
13832;SDS011;6987;19.472;-99.276;2023-02-28T14:36:08;23.73;;;9.15;;
13832;SDS011;6987;19.472;-99.276;2023-02-28T14:38:41;33.05;;;9.65;;
13832;SDS011;6987;19.472;-99.276;2023-02-28T14:41:15;16.20;;;9.00;;
13832;SDS011;6987;19.472;-99.276;2023-02-28T14:43:53;17.60;;;10.00;;
13832;SDS011;6987;19.472;-99.276;2023-02-28T14:46:22;24.15;;;9.52;;
13832;SDS011;6987;19.472;-99.276;2023-02-28T14:48:54;32.95;;;9.88;;
13832;SDS011;6987;19.472;-99.276;2023-02-28T14:51:23;20.88;;;8.90;;
13832;SDS011;6987;19.472;-99.276;2023-02-28T14:53:56;18.67;;;8.35;;
13832;SDS011;6987;19.472;-99.276;2023-02-28T14:56:26;18.30;;;9.05;;
13832;SDS011;6987;19.472;-99.276;2023-02-28T14:58:57;19.40;;;9.25;;
13832;SDS011;6987;19.472;-99.276;2023-02-28T15:01:26;17.50;;;6.30;;
13832;SDS011;6987;19.472;-99.276;2023-02-28T15:03:59;11.32;;;5.88;;
13832;SDS011;6987;19.472;-99.276;2023-02-28T15:06:29;10.13;;;5.70;;
13832;SDS011;6987;19.472;-99.276;2023-02-28T15:09:13;6.85;;;5.40;;
13832;SDS011;6987;19.472;-99.276;2023-02-28T15:11:44;11.18;;;6.40;;
13832;SDS011;6987;19.472;-99.276;2023-02-28T15:14:15;7.50;;;6.07;;
13832;SDS011;6987;19.472;-99.276;2023-02-28T15:16:46;8.50;;;5.82;;
13832;SDS011;6987;19.472;-99.276;2023-02-28T15:19:19;16.13;;;6.32;;
13832;SDS011;6987;19.472;-99.276;2023-02-28T15:21:50;11.30;;;5.28;;
13832;SDS011;6987;19.472;-99.276;2023-02-28T15:24:22;7.18;;;5.82;;
13832;SDS011;6987;19.472;-99.276;2023-02-28T15:26:57;8.73;;;5.78;;